Time;durP1;ratioP1;P1;durP2;ratioP2;P2;SDS_P1;SDS_P2;PMS_P1;PMS_P2;Temp;Humidity;BMP_temperature;BMP_pressure;BME280_temperature;BME280_humidity;BME280_pressure;Samples;Min_cycle;Max_cycle;Signal;HPM_P1;HPM_P2
2023/11/13 00:02:13;;;;;;;20.73;12.05;;;5.50;99.90;;;;;;5066116;28;20422;-74
2023/11/13 00:04:39;;;;;;;19.05;12.05;;;5.50;99.90;;;;;;5051266;28;20424;-75
2023/11/13 00:07:06;;;;;;;18.33;11.80;;;5.50;99.90;;;;;;5051414;28;20392;-75
2023/11/13 00:09:31;;;;;;;23.17;11.93;;;5.50;99.90;;;;;;5053994;28;20510;-74
2023/11/13 00:11:57;;;;;;;19.77;11.00;;;5.60;99.90;;;;;;5072089;28;20478;-75
2023/11/13 00:14:23;;;;;;;18.10;11.97;;;5.60;99.90;;;;;;5072726;28;20421;-77
2023/11/13 00:16:48;;;;;;;18.53;11.10;;;5.60;99.90;;;;;;5064489;28;20385;-75
2023/11/13 00:19:14;;;;;;;21.27;11.30;;;5.60;99.90;;;;;;5053202;28;20377;-74
2023/11/13 00:21:40;;;;;;;19.30;11.52;;;5.70;99.90;;;;;;5071765;28;20809;-76
2023/11/13 00:24:06;;;;;;;21.40;11.50;;;5.80;99.90;;;;;;5076595;28;20403;-75
2023/11/13 00:26:32;;;;;;;19.17;11.40;;;5.80;99.90;;;;;;5076796;28;20416;-74
2023/11/13 00:28:58;;;;;;;17.30;10.70;;;6.00;99.90;;;;;;5077643;28;20439;-76
2023/11/13 00:31:23;;;;;;;16.23;10.30;;;6.00;99.90;;;;;;5075454;28;20699;-76
2023/11/13 00:33:49;;;;;;;19.13;10.63;;;6.10;99.90;;;;;;5072491;28;20404;-75
2023/11/13 00:36:16;;;;;;;17.15;10.30;;;6.20;99.90;;;;;;5075354;28;20802;-75
2023/11/13 00:38:41;;;;;;;18.13;10.47;;;6.20;99.90;;;;;;5074881;28;20392;-74
2023/11/13 00:41:11;;;;;;;20.90;10.70;;;6.30;98.60;;;;;;5074528;28;20391;-75
2023/11/13 00:43:37;;;;;;;15.02;9.48;;;6.40;95.70;;;;;;5074180;28;20440;-75
2023/11/13 00:46:03;;;;;;;15.50;9.57;;;6.50;93.90;;;;;;5074092;28;20810;-74
2023/11/13 00:48:28;;;;;;;14.90;9.07;;;6.50;91.60;;;;;;5074539;28;20521;-73
2023/11/13 00:50:54;;;;;;;15.93;9.10;;;6.50;92.90;;;;;;5074853;28;20402;-74
2023/11/13 00:53:19;;;;;;;13.83;8.87;;;6.50;92.70;;;;;;5073629;28;20411;-75
2023/11/13 00:55:45;;;;;;;18.30;9.60;;;6.70;92.80;;;;;;5076922;28;20418;-75
2023/11/13 00:58:10;;;;;;;15.10;9.40;;;6.50;90.90;;;;;;5081813;28;20379;-73
2023/11/13 01:00:36;;;;;;;16.70;9.00;;;6.50;91.30;;;;;;5079290;28;20415;-76
2023/11/13 01:03:02;;;;;;;13.50;8.63;;;6.60;90.00;;;;;;5079026;28;20906;-76
2023/11/13 01:05:27;;;;;;;15.02;9.27;;;6.60;91.20;;;;;;5084030;28;20422;-74
2023/11/13 01:07:53;;;;;;;14.82;8.82;;;6.60;89.30;;;;;;5085258;28;20400;-73
2023/11/13 01:10:19;;;;;;;12.88;8.50;;;6.50;89.40;;;;;;5085438;28;20395;-73
2023/11/13 01:12:45;;;;;;;15.70;8.77;;;6.60;88.40;;;;;;5080441;28;20500;-74
2023/11/13 01:15:12;;;;;;;13.20;8.80;;;6.60;87.30;;;;;;5078034;28;20399;-74
2023/11/13 01:17:37;;;;;;;16.45;8.50;;;6.60;85.30;;;;;;5080939;28;20383;-76
2023/11/13 01:20:05;;;;;;;14.38;9.05;;;6.60;86.30;;;;;;5080516;28;20394;-75
2023/11/13 01:22:31;;;;;;;12.98;8.73;;;6.60;86.70;;;;;;5064241;28;20393;-75
2023/11/13 01:24:57;;;;;;;13.25;8.85;;;6.50;87.40;;;;;;5069030;28;20395;-75
2023/11/13 01:27:23;;;;;;;15.00;8.97;;;6.60;87.40;;;;;;5074868;28;20422;-76
2023/11/13 01:29:48;;;;;;;16.23;8.00;;;6.60;88.10;;;;;;5074562;28;20800;-74
2023/11/13 01:32:14;;;;;;;14.60;8.50;;;6.60;86.60;;;;;;5073549;28;20432;-76
2023/11/13 01:34:41;;;;;;;11.63;7.93;;;6.60;86.50;;;;;;5063318;28;20417;-75
2023/11/13 01:37:06;;;;;;;15.07;8.30;;;6.60;86.90;;;;;;5069590;28;20396;-75
2023/11/13 01:39:32;;;;;;;15.95;8.38;;;6.70;86.90;;;;;;5073115;28;20897;-74
2023/11/13 01:41:58;;;;;;;14.15;7.60;;;6.70;86.40;;;;;;5073141;28;20441;-75
2023/11/13 01:44:24;;;;;;;14.13;7.77;;;6.80;85.10;;;;;;5073167;28;20387;-75
2023/11/13 01:46:50;;;;;;;13.70;7.70;;;6.80;82.50;;;;;;5072360;28;20788;-75
2023/11/13 01:49:19;;;;;;;14.57;7.85;;;6.90;82.50;;;;;;5070729;28;20425;-75
2023/11/13 01:51:45;;;;;;;12.53;6.83;;;6.90;81.50;;;;;;5073472;28;20479;-75
2023/11/13 01:54:12;;;;;;;13.00;7.50;;;6.90;81.20;;;;;;5073453;28;20461;-76
2023/11/13 01:56:37;;;;;;;12.65;7.55;;;6.90;82.30;;;;;;5073526;28;20404;-74
2023/11/13 01:59:04;;;;;;;14.43;7.90;;;6.90;82.30;;;;;;5073674;28;20420;-76
2023/11/13 02:01:31;;;;;;;11.07;7.10;;;6.90;81.70;;;;;;5075332;28;20419;-74
2023/11/13 02:03:56;;;;;;;14.32;7.00;;;6.90;81.30;;;;;;5077381;28;20800;-76
2023/11/13 02:06:22;;;;;;;11.45;6.82;;;6.90;81.00;;;;;;5073289;28;20482;-73
2023/11/13 02:08:48;;;;;;;10.07;6.70;;;6.90;81.30;;;;;;5072625;28;20762;-73
2023/11/13 02:11:15;;;;;;;10.30;6.65;;;7.00;79.60;;;;;;5073105;28;20427;-73
2023/11/13 02:13:43;;;;;;;11.20;6.87;;;6.90;80.20;;;;;;5073210;28;20404;-73
2023/11/13 02:16:12;;;;;;;13.32;6.70;;;7.00;79.60;;;;;;5072446;28;20391;-73
2023/11/13 02:18:37;;;;;;;8.70;6.50;;;7.10;79.20;;;;;;5072013;28;20403;-73
2023/11/13 02:21:04;;;;;;;12.75;6.13;;;7.20;77.30;;;;;;5073518;28;20431;-73
2023/11/13 02:23:29;;;;;;;13.35;6.80;;;7.30;75.60;;;;;;5071540;28;20483;-72
2023/11/13 02:25:55;;;;;;;11.20;6.37;;;7.20;76.30;;;;;;5071279;28;20933;-72
2023/11/13 02:28:21;;;;;;;11.40;6.53;;;7.30;75.70;;;;;;5071095;28;20805;-71
2023/11/13 02:30:47;;;;;;;8.68;6.00;;;7.30;75.30;;;;;;5071530;28;20387;-72
2023/11/13 02:33:13;;;;;;;10.27;6.25;;;7.40;74.10;;;;;;5071271;28;20408;-72
2023/11/13 02:35:39;;;;;;;9.45;6.15;;;7.40;73.30;;;;;;5071151;28;20460;-72
2023/11/13 02:38:05;;;;;;;8.80;6.00;;;7.50;72.70;;;;;;5070736;28;20450;-73
2023/11/13 02:40:31;;;;;;;9.50;5.70;;;7.50;72.10;;;;;;5071304;28;20392;-72
2023/11/13 02:42:56;;;;;;;8.52;5.88;;;7.50;72.40;;;;;;5071068;28;20391;-72
2023/11/13 02:45:26;;;;;;;8.02;5.45;;;7.50;71.40;;;;;;5070641;28;20878;-72
2023/11/13 02:47:52;;;;;;;13.45;6.25;;;7.60;70.40;;;;;;5065431;28;20461;-72
2023/11/13 02:50:18;;;;;;;7.78;5.70;;;7.60;70.40;;;;;;5069768;28;20426;-73
2023/11/13 02:52:44;;;;;;;8.55;5.45;;;7.60;71.80;;;;;;5070955;28;20770;-71
2023/11/13 02:55:12;;;;;;;11.40;5.80;;;7.60;70.10;;;;;;5070402;28;20403;-71
2023/11/13 02:57:38;;;;;;;8.00;5.78;;;7.70;71.20;;;;;;5069731;28;20867;-72
2023/11/13 03:00:08;;;;;;;9.43;5.67;;;7.70;70.20;;;;;;5070416;28;20395;-72
2023/11/13 03:02:34;;;;;;;8.18;6.00;;;7.70;71.30;;;;;;5070913;28;20415;-72
2023/11/13 03:04:59;;;;;;;8.07;5.93;;;7.70;71.40;;;;;;5070519;28;20461;-72
2023/11/13 03:07:26;;;;;;;10.95;5.70;;;7.80;69.80;;;;;;5070858;28;20395;-72
2023/11/13 03:09:53;;;;;;;9.37;5.67;;;7.80;69.80;;;;;;5055817;28;20459;-72
2023/11/13 03:12:21;;;;;;;9.27;5.32;;;7.90;68.60;;;;;;5062905;28;20763;-72
2023/11/13 03:14:47;;;;;;;10.10;5.90;;;7.90;68.90;;;;;;5070471;28;20466;-72
2023/11/13 03:17:12;;;;;;;8.73;5.70;;;7.80;69.40;;;;;;5070380;28;20481;-72
2023/11/13 03:19:38;;;;;;;8.45;5.78;;;7.90;70.10;;;;;;5070019;28;20391;-73
2023/11/13 03:22:04;;;;;;;9.20;5.93;;;7.90;70.30;;;;;;5070262;28;20405;-72
2023/11/13 03:24:29;;;;;;;9.32;5.70;;;7.90;69.60;;;;;;5070126;28;20908;-72
2023/11/13 03:26:55;;;;;;;10.87;5.40;;;7.90;70.60;;;;;;5053908;28;20391;-72
2023/11/13 03:29:21;;;;;;;9.40;5.73;;;7.90;69.30;;;;;;5070316;28;20949;-72
2023/11/13 03:31:46;;;;;;;12.90;5.60;;;7.90;70.70;;;;;;5070326;28;20402;-72
2023/11/13 03:34:12;;;;;;;7.60;5.40;;;7.90;72.20;;;;;;5070251;28;20956;-72
2023/11/13 03:36:38;;;;;;;8.13;5.53;;;7.90;71.80;;;;;;5070126;28;20460;-73
2023/11/13 03:39:04;;;;;;;10.30;6.03;;;7.90;74.10;;;;;;5070317;28;20968;-72
2023/11/13 03:41:32;;;;;;;9.68;6.00;;;7.90;75.40;;;;;;5070093;28;20391;-72
2023/11/13 03:44:00;;;;;;;10.57;6.40;;;7.90;76.70;;;;;;5070118;28;20906;-72
2023/11/13 03:46:26;;;;;;;13.35;6.40;;;7.80;79.90;;;;;;5070191;28;20486;-72
2023/11/13 03:48:52;;;;;;;12.27;6.90;;;7.80;81.30;;;;;;5069965;28;20471;-72
2023/11/13 03:51:17;;;;;;;10.73;6.63;;;7.90;81.70;;;;;;5069714;28;20403;-72
2023/11/13 03:53:43;;;;;;;10.20;7.17;;;7.80;84.10;;;;;;5068593;28;20407;-72
2023/11/13 03:56:08;;;;;;;11.87;7.40;;;7.80;84.40;;;;;;5069911;28;20787;-72
2023/11/13 03:58:34;;;;;;;14.53;7.83;;;7.80;86.10;;;;;;5069770;28;20746;-72
2023/11/13 04:01:00;;;;;;;12.98;7.75;;;7.90;85.50;;;;;;5069510;28;20392;-72
2023/11/13 04:03:26;;;;;;;12.85;7.50;;;7.80;87.20;;;;;;5069959;28;20392;-74
2023/11/13 04:05:51;;;;;;;11.45;7.63;;;7.80;88.60;;;;;;5062144;28;20405;-71
2023/11/13 04:08:17;;;;;;;14.07;7.82;;;7.90;89.60;;;;;;5050122;28;20385;-72
2023/11/13 04:10:42;;;;;;;9.65;8.10;;;7.80;90.20;;;;;;5068103;28;20455;-71
2023/11/13 04:13:08;;;;;;;11.77;8.07;;;7.90;91.60;;;;;;5074006;28;20427;-73
2023/11/13 04:15:33;;;;;;;16.02;8.60;;;7.80;92.90;;;;;;5073506;28;20392;-71
2023/11/13 04:17:59;;;;;;;11.73;8.32;;;7.80;93.70;;;;;;5073932;28;20807;-71
2023/11/13 04:20:25;;;;;;;12.70;9.00;;;7.80;95.00;;;;;;5074197;28;20388;-73
2023/11/13 04:22:50;;;;;;;16.90;8.95;;;7.80;96.60;;;;;;5073970;28;20882;-72
2023/11/13 04:25:16;;;;;;;14.68;9.07;;;7.70;98.60;;;;;;5073433;28;20470;-72
2023/11/13 04:27:42;;;;;;;13.40;8.55;;;7.70;99.90;;;;;;5073652;28;20431;-72
2023/11/13 04:30:08;;;;;;;12.07;8.83;;;7.70;99.90;;;;;;5073339;28;20414;-72
2023/11/13 04:32:33;;;;;;;15.32;8.90;;;7.70;99.90;;;;;;5073469;28;20885;-71
2023/11/13 04:34:59;;;;;;;15.27;8.80;;;7.80;99.90;;;;;;5073016;28;20470;-72
2023/11/13 04:37:25;;;;;;;13.90;9.30;;;7.70;99.90;;;;;;5073541;28;20390;-73
2023/11/13 04:39:50;;;;;;;16.60;9.40;;;7.80;99.90;;;;;;5073252;28;20375;-72
2023/11/13 04:42:16;;;;;;;13.67;9.13;;;7.70;99.90;;;;;;5073246;28;20387;-73
2023/11/13 04:44:41;;;;;;;15.07;9.40;;;7.70;99.90;;;;;;5073300;28;20486;-72
2023/11/13 04:47:08;;;;;;;14.70;8.90;;;7.80;99.90;;;;;;5073438;28;20387;-72
2023/11/13 04:49:35;;;;;;;13.60;8.80;;;7.80;99.90;;;;;;5073459;28;20901;-73
2023/11/13 04:52:01;;;;;;;16.00;9.80;;;7.80;99.90;;;;;;5073237;28;20419;-72
2023/11/13 04:54:26;;;;;;;11.65;9.10;;;7.80;99.90;;;;;;5072960;28;20399;-72
2023/11/13 04:56:52;;;;;;;14.20;9.50;;;7.80;99.90;;;;;;5073261;28;21130;-73
2023/11/13 04:59:18;;;;;;;13.37;9.40;;;7.80;99.90;;;;;;5073415;28;20386;-72
2023/11/13 05:01:43;;;;;;;13.20;9.40;;;7.90;99.90;;;;;;5073247;28;20391;-73
2023/11/13 05:04:09;;;;;;;12.83;9.13;;;7.80;99.90;;;;;;5072993;28;20486;-73
2023/11/13 05:06:38;;;;;;;14.87;9.07;;;7.90;99.90;;;;;;5073103;28;20411;-72
2023/11/13 05:09:04;;;;;;;12.60;9.23;;;7.90;99.90;;;;;;5073633;28;20388;-72
2023/11/13 05:11:31;;;;;;;12.20;8.93;;;7.90;99.90;;;;;;5072366;28;20412;-73
2023/11/13 05:13:56;;;;;;;12.38;8.90;;;7.90;99.90;;;;;;5072567;28;20421;-72
2023/11/13 05:16:24;;;;;;;13.13;8.75;;;8.00;99.90;;;;;;5073204;28;20446;-73
2023/11/13 05:18:51;;;;;;;13.35;9.20;;;8.00;99.90;;;;;;5072688;28;20395;-73
2023/11/13 05:21:17;;;;;;;12.18;8.95;;;8.00;99.90;;;;;;5072430;28;20445;-73
2023/11/13 05:23:43;;;;;;;10.73;7.70;;;8.10;99.90;;;;;;5072472;28;20426;-73
2023/11/13 05:26:08;;;;;;;10.43;8.03;;;8.20;99.90;;;;;;5072528;28;20427;-73
2023/11/13 05:28:34;;;;;;;11.93;8.23;;;8.20;99.90;;;;;;5072621;28;20392;-73
2023/11/13 05:31:01;;;;;;;13.93;8.18;;;8.20;99.90;;;;;;5072418;28;20762;-73
2023/11/13 05:33:27;;;;;;;11.10;7.70;;;8.20;99.90;;;;;;5070599;28;20408;-72
2023/11/13 05:35:53;;;;;;;13.05;8.20;;;8.20;99.90;;;;;;5071246;28;20403;-72
2023/11/13 05:38:19;;;;;;;11.17;7.90;;;8.30;99.90;;;;;;5072157;28;20893;-72
2023/11/13 05:40:45;;;;;;;14.50;7.80;;;8.30;99.90;;;;;;5071793;28;20757;-72
2023/11/13 05:43:10;;;;;;;12.63;8.07;;;8.30;99.90;;;;;;5072284;28;20474;-72
2023/11/13 05:45:36;;;;;;;10.20;7.87;;;8.30;99.90;;;;;;5071884;28;20874;-72
2023/11/13 05:48:03;;;;;;;15.80;8.97;;;8.30;99.90;;;;;;5071267;28;20403;-73
2023/11/13 05:50:29;;;;;;;14.30;9.35;;;8.30;99.90;;;;;;5071832;28;20907;-72
2023/11/13 05:52:55;;;;;;;15.73;9.70;;;8.30;99.90;;;;;;5053641;28;20405;-72
2023/11/13 05:55:22;;;;;;;16.60;9.93;;;8.30;99.90;;;;;;5071483;28;20889;-72
2023/11/13 05:57:48;;;;;;;22.23;10.43;;;10.50;99.90;;;;;;5070977;28;20450;-73
2023/11/13 06:00:16;;;;;;;15.87;10.80;;;8.40;99.90;;;;;;5071884;28;20419;-74
2023/11/13 06:02:42;;;;;;;20.58;11.82;;;8.30;99.90;;;;;;5071186;28;20474;-72
2023/11/13 06:05:09;;;;;;;22.23;12.95;;;8.30;99.90;;;;;;5071251;28;20404;-72
2023/11/13 06:07:36;;;;;;;21.00;13.63;;;8.30;99.90;;;;;;5069616;28;20426;-72
2023/11/13 06:10:04;;;;;;;17.90;12.45;;;8.40;99.90;;;;;;5070853;28;20392;-73
2023/11/13 06:12:30;;;;;;;21.17;13.13;;;8.40;99.90;;;;;;5071834;28;20483;-72
2023/11/13 06:14:56;;;;;;;18.42;11.68;;;8.50;99.90;;;;;;5071178;28;20395;-72
2023/11/13 06:17:23;;;;;;;15.75;11.20;;;8.40;99.90;;;;;;5071378;28;20538;-72
2023/11/13 06:19:51;;;;;;;16.85;11.18;;;8.40;99.90;;;;;;5071163;28;20392;-72
2023/11/13 06:22:17;;;;;;;17.93;11.40;;;8.50;99.90;;;;;;5072289;28;20380;-72
2023/11/13 06:24:43;;;;;;;16.20;10.70;;;8.60;99.90;;;;;;5071125;28;20728;-72
2023/11/13 06:27:09;;;;;;;17.10;10.68;;;8.60;99.90;;;;;;5071537;28;20399;-73
2023/11/13 06:29:35;;;;;;;16.55;10.50;;;8.50;99.90;;;;;;5070281;28;20408;-72
2023/11/13 06:32:01;;;;;;;16.43;10.40;;;8.60;99.90;;;;;;5064332;28;20414;-73
2023/11/13 06:34:28;;;;;;;15.27;9.88;;;8.60;99.90;;;;;;5076113;28;20410;-73
2023/11/13 06:36:54;;;;;;;11.25;8.90;;;8.60;99.90;;;;;;5076681;28;20381;-73
2023/11/13 06:39:19;;;;;;;16.07;9.57;;;8.60;99.90;;;;;;5077318;28;20476;-73
2023/11/13 06:41:45;;;;;;;18.47;10.13;;;8.80;99.90;;;;;;5076562;28;20459;-73
2023/11/13 06:44:11;;;;;;;15.90;8.70;;;8.80;99.90;;;;;;5071753;28;20391;-73
2023/11/13 06:46:37;;;;;;;12.93;9.00;;;8.80;99.90;;;;;;5070902;28;20418;-73
2023/11/13 06:49:03;;;;;;;23.83;9.25;;;8.80;99.70;;;;;;5071025;28;20384;-73
2023/11/13 06:51:30;;;;;;;12.70;9.07;;;8.90;99.90;;;;;;5070303;28;20769;-73
2023/11/13 06:53:56;;;;;;;15.18;8.60;;;8.90;99.90;;;;;;5070120;28;20914;-72
2023/11/13 06:56:22;;;;;;;15.38;8.70;;;8.90;99.90;;;;;;5059851;28;20425;-73
2023/11/13 06:58:49;;;;;;;16.23;8.40;;;8.90;99.90;;;;;;5069317;28;20407;-73
2023/11/13 07:01:15;;;;;;;13.52;8.60;;;8.90;99.90;;;;;;5049154;28;20393;-71
2023/11/13 07:03:41;;;;;;;16.90;8.27;;;8.90;99.90;;;;;;5065230;28;20478;-71
2023/11/13 07:06:07;;;;;;;13.53;8.90;;;9.00;99.90;;;;;;5068368;28;20947;-72
2023/11/13 07:08:33;;;;;;;13.77;8.38;;;9.00;99.90;;;;;;5069767;28;20431;-72
2023/11/13 07:10:59;;;;;;;10.90;7.53;;;9.00;99.90;;;;;;5070478;28;20387;-73
2023/11/13 07:13:25;;;;;;;11.63;7.90;;;9.00;99.90;;;;;;5070401;28;20465;-73
2023/11/13 07:15:51;;;;;;;13.70;7.97;;;9.10;99.90;;;;;;5070409;28;20442;-73
2023/11/13 07:18:16;;;;;;;14.85;8.00;;;9.00;99.90;;;;;;5070328;28;20383;-72
2023/11/13 07:20:42;;;;;;;12.53;8.00;;;9.10;99.90;;;;;;5071526;28;20421;-75
2023/11/13 07:23:09;;;;;;;13.47;8.10;;;9.10;99.90;;;;;;5072084;28;20900;-76
2023/11/13 07:25:35;;;;;;;13.63;8.18;;;9.10;99.90;;;;;;5073761;28;20410;-76
2023/11/13 07:28:01;;;;;;;12.35;7.80;;;9.10;99.90;;;;;;5074090;28;20703;-76
2023/11/13 07:30:27;;;;;;;11.52;7.53;;;9.10;99.90;;;;;;5075897;28;20388;-75
2023/11/13 07:32:53;;;;;;;13.35;7.63;;;9.10;99.90;;;;;;5076401;28;20407;-75
2023/11/13 07:35:20;;;;;;;12.82;8.55;;;9.20;99.90;;;;;;5077706;28;20384;-76
2023/11/13 07:37:46;;;;;;;19.98;8.23;;;9.20;99.90;;;;;;5084473;28;20384;-72
2023/11/13 07:40:14;;;;;;;17.27;8.43;;;9.20;99.90;;;;;;5092937;28;20461;-71
2023/11/13 07:42:40;;;;;;;18.45;8.77;;;9.20;99.90;;;;;;5093132;28;20403;-72
2023/11/13 07:45:09;;;;;;;14.02;8.10;;;9.30;99.90;;;;;;5082129;28;20404;-71
2023/11/13 07:47:34;;;;;;;13.38;6.90;;;9.30;99.90;;;;;;5085637;28;20456;-71
2023/11/13 07:50:00;;;;;;;15.23;8.70;;;9.30;99.90;;;;;;5090990;28;20415;-74
2023/11/13 07:52:27;;;;;;;16.70;7.82;;;9.30;99.90;;;;;;5085416;28;20949;-72
2023/11/13 07:54:55;;;;;;;14.23;8.00;;;9.30;99.90;;;;;;5078914;28;20428;-73
2023/11/13 07:57:23;;;;;;;16.10;7.70;;;9.30;99.90;;;;;;5093864;28;20497;-71
2023/11/13 07:59:48;;;;;;;15.65;7.93;;;9.30;99.90;;;;;;5092586;28;20392;-71
2023/11/13 08:02:14;;;;;;;16.47;7.70;;;9.30;99.90;;;;;;5093696;28;20410;-72
2023/11/13 08:04:40;;;;;;;13.32;7.10;;;9.30;99.90;;;;;;5093600;28;20445;-71
2023/11/13 08:07:06;;;;;;;18.70;8.50;;;9.40;99.90;;;;;;5093822;28;20463;-72
2023/11/13 08:09:33;;;;;;;18.90;8.10;;;9.40;99.90;;;;;;5094092;28;20426;-72
2023/11/13 08:12:01;;;;;;;16.00;8.25;;;9.40;99.90;;;;;;5093511;28;20395;-73
2023/11/13 08:14:27;;;;;;;18.63;8.18;;;9.40;99.90;;;;;;5092742;28;20488;-72
2023/11/13 08:16:54;;;;;;;14.23;7.40;;;9.50;99.90;;;;;;5092870;28;20407;-73
2023/11/13 08:19:20;;;;;;;17.83;7.53;;;9.50;99.90;;;;;;5093557;28;20392;-73
2023/11/13 08:21:46;;;;;;;14.52;7.95;;;9.50;99.90;;;;;;5093253;28;20380;-72
2023/11/13 08:24:12;;;;;;;15.60;7.93;;;9.50;99.90;;;;;;5093512;28;20485;-72
2023/11/13 08:26:37;;;;;;;15.53;7.37;;;9.50;99.90;;;;;;5091533;28;20391;-74
2023/11/13 08:29:03;;;;;;;17.37;7.90;;;9.50;99.90;;;;;;5089951;28;20399;-74
2023/11/13 08:31:29;;;;;;;24.33;7.87;;;9.50;99.90;;;;;;5091698;28;20399;-73
2023/11/13 08:33:55;;;;;;;13.23;7.45;;;9.60;99.90;;;;;;5093963;28;20437;-72
2023/11/13 08:36:27;;;;;;;16.27;7.00;;;9.70;99.90;;;;;;5091038;28;20396;-72
2023/11/13 08:38:54;;;;;;;15.23;7.07;;;9.70;99.90;;;;;;5090467;28;20395;-72
2023/11/13 08:41:19;;;;;;;14.68;7.60;;;9.70;99.90;;;;;;5093565;28;20455;-73
2023/11/13 08:43:45;;;;;;;14.50;7.10;;;9.70;99.90;;;;;;5092449;28;20368;-73
2023/11/13 08:46:12;;;;;;;16.00;7.75;;;9.80;99.90;;;;;;5089117;28;20421;-71
2023/11/13 08:48:37;;;;;;;12.35;6.63;;;9.80;99.90;;;;;;5093011;28;20387;-72
2023/11/13 08:51:07;;;;;;;18.03;7.37;;;9.90;99.90;;;;;;5093021;28;20411;-73
2023/11/13 08:53:42;;;;;;;19.33;7.30;;;9.90;99.90;;;;;;5094311;28;20483;-73
2023/11/13 08:56:14;;;;;;;18.98;7.72;;;9.90;99.90;;;;;;5095249;28;20469;-72
2023/11/13 08:58:43;;;;;;;18.10;6.77;;;10.00;99.90;;;;;;5095133;28;20465;-73
2023/11/13 09:01:09;;;;;;;14.73;6.60;;;10.00;99.90;;;;;;5095918;28;20391;-73
2023/11/13 09:03:34;;;;;;;17.33;6.90;;;10.00;99.90;;;;;;5096746;28;20424;-71
2023/11/13 09:06:04;;;;;;;17.10;6.60;;;10.10;99.90;;;;;;5077979;28;20401;-73
2023/11/13 09:08:31;;;;;;;19.75;7.28;;;10.10;99.90;;;;;;5090625;28;20476;-73
2023/11/13 09:10:56;;;;;;;17.02;6.80;;;10.10;99.90;;;;;;5096325;28;20380;-72
2023/11/13 09:13:24;;;;;;;15.10;6.70;;;10.20;99.90;;;;;;5093035;28;20423;-74
2023/11/13 09:15:49;;;;;;;13.20;6.35;;;10.20;99.90;;;;;;5095474;28;20395;-73
2023/11/13 09:18:17;;;;;;;17.23;5.77;;;10.20;99.90;;;;;;5089326;28;20415;-73
2023/11/13 09:20:43;;;;;;;15.18;6.20;;;10.20;99.90;;;;;;5078036;28;20428;-72
2023/11/13 09:23:09;;;;;;;20.80;7.20;;;10.20;99.90;;;;;;5096901;28;20408;-72
2023/11/13 09:25:35;;;;;;;23.73;6.90;;;10.30;99.90;;;;;;5095944;28;20410;-74
2023/11/13 09:28:00;;;;;;;16.33;6.30;;;10.30;99.90;;;;;;5084713;28;20396;-73
2023/11/13 09:30:26;;;;;;;16.10;7.00;;;10.40;99.90;;;;;;5094944;28;20379;-74
2023/11/13 09:32:52;;;;;;;15.65;7.07;;;10.40;99.90;;;;;;5096072;28;20419;-73
2023/11/13 09:35:23;;;;;;;15.15;6.22;;;10.40;99.90;;;;;;5093109;28;20471;-72
2023/11/13 09:37:53;;;;;;;19.55;8.10;;;10.50;99.90;;;;;;5095104;28;20412;-73
2023/11/13 09:40:22;;;;;;;16.70;6.20;;;10.40;99.90;;;;;;5096752;28;20364;-72
2023/11/13 09:43:06;;;;;;;12.00;6.27;;;10.50;99.90;;;;;;5095984;28;20400;-73
2023/11/13 09:45:32;;;;;;;12.75;5.32;;;10.50;99.90;;;;;;5094628;28;20443;-72
2023/11/13 09:48:04;;;;;;;10.02;4.90;;;10.60;99.90;;;;;;5076228;28;20384;-72
2023/11/13 09:50:30;;;;;;;10.93;4.63;;;10.70;99.90;;;;;;5068102;28;20374;-72
2023/11/13 09:52:57;;;;;;;16.40;5.30;;;10.60;99.90;;;;;;5069299;28;20491;-72
2023/11/13 09:55:26;;;;;;;8.03;4.37;;;10.50;99.90;;;;;;5082515;28;20388;-72
2023/11/13 09:57:52;;;;;;;8.90;4.18;;;10.60;99.90;;;;;;5083038;28;20394;-72
2023/11/13 10:00:25;;;;;;;13.90;5.78;;;10.60;99.90;;;;;;5064720;28;20647;-73
2023/11/13 10:02:53;;;;;;;14.05;5.18;;;10.60;99.90;;;;;;5070771;28;20433;-72
2023/11/13 10:05:26;;;;;;;12.35;4.80;;;10.70;99.90;;;;;;5083450;28;20418;-73
2023/11/13 10:07:52;;;;;;;8.10;4.40;;;10.70;99.90;;;;;;5082795;28;20415;-72
2023/11/13 10:10:22;;;;;;;5.85;4.10;;;10.70;99.90;;;;;;5078314;28;20405;-72
2023/11/13 10:12:53;;;;;;;7.78;3.35;;;10.60;99.90;;;;;;5082834;28;20403;-73
2023/11/13 10:15:27;;;;;;;9.30;3.58;;;10.70;99.90;;;;;;5070718;28;20423;-74
2023/11/13 10:17:56;;;;;;;6.32;3.45;;;10.70;99.90;;;;;;5082576;28;20398;-73
2023/11/13 10:20:22;;;;;;;8.48;3.45;;;10.70;99.90;;;;;;5075663;28;20380;-73
2023/11/13 10:23:04;;;;;;;9.32;3.70;;;10.70;99.90;;;;;;5084879;28;20473;-72
2023/11/13 10:25:45;;;;;;;10.47;4.10;;;10.70;99.90;;;;;;5073538;28;20402;-72
2023/11/13 10:28:14;;;;;;;11.90;4.70;;;10.70;99.90;;;;;;5071203;28;20517;-72
2023/11/13 10:30:56;;;;;;;8.27;4.32;;;10.90;99.90;;;;;;5071922;28;20384;-74
2023/11/13 10:33:23;;;;;;;8.07;3.65;;;10.90;99.90;;;;;;5071685;28;20411;-72
2023/11/13 10:35:50;;;;;;;9.98;3.20;;;11.00;99.90;;;;;;5071579;28;20395;-75
2023/11/13 10:38:16;;;;;;;5.53;2.50;;;11.10;99.40;;;;;;5072072;28;20415;-72
2023/11/13 10:40:46;;;;;;;4.50;3.00;;;11.10;97.70;;;;;;5071448;28;20449;-73
2023/11/13 10:43:27;;;;;;;8.10;3.38;;;11.20;97.50;;;;;;5070005;28;20390;-74
2023/11/13 10:45:53;;;;;;;7.03;3.70;;;11.20;98.70;;;;;;5069704;28;20416;-73
2023/11/13 10:48:37;;;;;;;6.60;3.42;;;11.20;96.60;;;;;;5053908;28;20609;-72
2023/11/13 10:51:05;;;;;;;5.78;3.20;;;11.30;95.10;;;;;;5051172;28;20389;-72
2023/11/13 10:53:37;;;;;;;8.20;3.53;;;11.30;94.10;;;;;;5055526;28;20439;-73
2023/11/13 10:56:05;;;;;;;7.40;3.88;;;11.40;95.10;;;;;;5063196;28;20395;-73
2023/11/13 10:58:30;;;;;;;6.22;3.42;;;11.60;92.10;;;;;;5070305;28;20395;-73
2023/11/13 11:01:00;;;;;;;9.05;3.25;;;11.70;89.90;;;;;;5050826;28;20427;-73
2023/11/13 11:03:27;;;;;;;8.20;2.97;;;11.80;87.60;;;;;;5059338;28;20438;-73
2023/11/13 11:05:58;;;;;;;12.95;3.72;;;11.80;86.60;;;;;;5071085;28;20442;-74
2023/11/13 11:08:25;;;;;;;9.02;3.40;;;12.00;84.90;;;;;;5072207;28;20384;-75
2023/11/13 11:10:52;;;;;;;8.77;3.90;;;12.10;83.80;;;;;;5072493;28;20387;-74
2023/11/13 11:13:20;;;;;;;6.72;3.10;;;12.40;82.60;;;;;;5071688;28;20769;-74
2023/11/13 11:16:27;;;;;;;10.65;3.22;;;12.60;76.70;;;;;;5060865;28;20833;-73
2023/11/13 11:18:59;;;;;;;8.17;3.03;;;12.70;75.70;;;;;;5046677;28;20512;-74
2023/11/13 11:21:43;;;;;;;6.45;3.42;;;12.80;72.70;;;;;;5069656;28;20766;-73
2023/11/13 11:24:38;;;;;;;11.40;3.90;;;12.90;73.00;;;;;;5050954;28;20447;-73
2023/11/13 11:27:03;;;;;;;7.55;3.40;;;12.90;72.50;;;;;;5039268;28;20389;-73
2023/11/13 11:29:37;;;;;;;5.25;3.30;;;13.00;70.60;;;;;;5054583;28;20752;-73
2023/11/13 11:32:13;;;;;;;5.87;3.47;;;13.00;69.40;;;;;;5058124;28;20396;-74
2023/11/13 11:34:42;;;;;;;7.88;3.85;;;12.90;70.00;;;;;;5068382;28;20418;-74
2023/11/13 11:37:11;;;;;;;8.02;3.75;;;12.80;71.20;;;;;;5049104;28;20476;-75
2023/11/13 11:39:47;;;;;;;9.68;4.00;;;12.70;72.70;;;;;;5048910;28;20381;-75
2023/11/13 11:42:22;;;;;;;7.03;4.00;;;12.50;75.30;;;;;;5048558;28;20413;-73
2023/11/13 11:44:53;;;;;;;8.75;3.95;;;12.50;77.40;;;;;;5046977;28;20401;-74
2023/11/13 11:47:25;;;;;;;6.40;3.60;;;13.30;78.70;;;;;;5050513;28;20480;-75
2023/11/13 11:49:51;;;;;;;10.40;4.20;;;12.40;79.70;;;;;;5069000;28;20383;-74
2023/11/13 11:52:18;;;;;;;8.25;3.35;;;12.40;78.60;;;;;;5069771;28;20379;-74
2023/11/13 11:54:45;;;;;;;6.45;3.63;;;12.40;79.50;;;;;;5067771;28;20403;-73
2023/11/13 11:57:11;;;;;;;6.22;3.70;;;12.30;80.00;;;;;;5068382;28;20457;-74
2023/11/13 11:59:39;;;;;;;6.88;3.40;;;12.30;80.20;;;;;;5068946;28;20789;-74
2023/11/13 12:02:05;;;;;;;7.00;3.38;;;12.30;81.30;;;;;;5068417;28;20410;-75
2023/11/13 12:04:32;;;;;;;9.23;3.00;;;12.30;82.20;;;;;;5068152;28;20399;-75
2023/11/13 12:07:01;;;;;;;8.45;3.60;;;12.30;82.40;;;;;;5068192;28;20398;-74
2023/11/13 12:09:30;;;;;;;8.85;3.40;;;12.20;83.40;;;;;;5068215;28;20394;-74
2023/11/13 12:11:59;;;;;;;9.73;4.10;;;12.20;85.10;;;;;;5067510;28;20408;-74
2023/11/13 12:14:26;;;;;;;10.48;4.00;;;12.10;87.80;;;;;;5068786;28;20456;-75
2023/11/13 12:16:51;;;;;;;8.30;4.00;;;12.10;90.00;;;;;;5065831;28;20400;-73
2023/11/13 12:19:18;;;;;;;11.87;4.67;;;12.00;92.60;;;;;;5068543;28;20448;-73
2023/11/13 12:21:44;;;;;;;11.30;4.15;;;12.00;94.30;;;;;;5068199;28;20387;-74
2023/11/13 12:24:16;;;;;;;13.63;4.50;;;12.00;93.30;;;;;;5068140;28;20856;-74
2023/11/13 12:26:44;;;;;;;10.40;5.27;;;12.00;94.10;;;;;;5067370;28;20456;-72
2023/11/13 12:29:18;;;;;;;7.25;4.80;;;12.10;95.40;;;;;;5048243;28;20393;-75
2023/11/13 12:31:45;;;;;;;11.10;5.25;;;12.10;95.80;;;;;;5063262;28;20889;-73
2023/11/13 12:34:15;;;;;;;9.90;4.47;;;12.20;95.50;;;;;;5071714;28;20410;-74
2023/11/13 12:36:48;;;;;;;9.07;4.28;;;12.30;94.90;;;;;;5058013;28;20438;-74
2023/11/13 12:39:17;;;;;;;9.70;4.20;;;12.60;90.80;;;;;;5053388;28;20831;-74
2023/11/13 12:41:46;;;;;;;7.70;4.53;;;12.50;90.60;;;;;;5071822;28;20925;-73
2023/11/13 12:44:16;;;;;;;7.70;4.22;;;12.50;91.50;;;;;;5072636;28;20403;-74
2023/11/13 12:46:43;;;;;;;6.60;4.00;;;12.50;92.20;;;;;;5072004;28;20384;-74